Time;durP1;ratioP1;P1;durP2;ratioP2;P2;SDS_P1;SDS_P2;PMS_P1;PMS_P2;Temp;Humidity;BMP_temperature;BMP_pressure;BME280_temperature;BME280_humidity;BME280_pressure;Samples;Min_cycle;Max_cycle;Signal;HPM_P1;HPM_P2
2021/06/19 00:00:12;;;;;;;14.95;4.05;;;;;;;23.43;55.96;98785.09;5075440;28;20053;-79
2021/06/19 00:02:39;;;;;;;10.20;3.25;;;;;;;23.37;56.98;98791.75;5076300;28;20123;-78
2021/06/19 00:05:06;;;;;;;11.38;3.83;;;;;;;23.38;56.05;98785.13;5075027;28;20056;-78
2021/06/19 00:07:33;;;;;;;10.93;3.35;;;;;;;23.46;54.88;98778.16;5075375;28;20554;-78
2021/06/19 00:10:01;;;;;;;8.85;3.05;;;;;;;23.40;55.62;98788.44;5075773;28;20041;-78
2021/06/19 00:12:28;;;;;;;13.63;3.17;;;;;;;23.54;56.26;98780.38;5074583;28;20048;-78
2021/06/19 00:14:55;;;;;;;10.18;2.95;;;;;;;23.48;58.48;98782.31;5074885;28;20072;-77
2021/06/19 00:17:21;;;;;;;11.65;3.35;;;;;;;23.36;58.96;98783.72;5074573;28;20485;-77
2021/06/19 00:19:48;;;;;;;13.90;3.67;;;;;;;23.28;58.50;98791.50;5075735;28;20569;-77
2021/06/19 00:22:15;;;;;;;9.77;3.25;;;;;;;23.30;58.69;98799.53;5065343;28;20102;-77
2021/06/19 00:24:42;;;;;;;12.75;2.65;;;;;;;23.18;57.83;98796.19;5075192;28;20048;-77
2021/06/19 00:27:11;;;;;;;9.80;3.15;;;;;;;23.24;57.28;98815.31;5075054;28;20052;-77
2021/06/19 00:29:37;;;;;;;8.25;2.85;;;;;;;23.22;58.27;98825.06;5074815;28;20097;-78
2021/06/19 00:32:05;;;;;;;12.70;3.83;;;;;;;23.15;58.31;98815.06;5075261;28;20114;-78
2021/06/19 00:34:32;;;;;;;16.63;3.85;;;;;;;23.20;59.04;98825.31;5074569;28;20053;-78
2021/06/19 00:36:59;;;;;;;9.10;3.13;;;;;;;23.04;59.95;98838.28;5074846;28;20558;-78
2021/06/19 00:39:25;;;;;;;8.25;3.08;;;;;;;22.97;59.82;98833.03;5074841;28;20045;-78
2021/06/19 00:41:52;;;;;;;10.38;3.38;;;;;;;22.97;59.63;98824.72;5074818;28;20094;-78
2021/06/19 00:44:21;;;;;;;11.65;3.35;;;;;;;22.97;59.40;98840.50;5074553;28;20048;-78
2021/06/19 00:46:51;;;;;;;19.35;3.88;;;;;;;22.95;59.35;98854.63;5074488;28;20079;-78
2021/06/19 00:49:18;;;;;;;15.38;4.30;;;;;;;22.82;59.30;98882.03;5074609;28;20128;-78
2021/06/19 00:51:45;;;;;;;13.90;3.20;;;;;;;22.75;59.89;98866.50;5074249;28;20097;-79
2021/06/19 00:54:12;;;;;;;16.23;3.88;;;;;;;22.70;60.55;98885.91;5074364;28;20045;-79
2021/06/19 00:56:39;;;;;;;8.15;3.50;;;;;;;22.69;59.66;98858.44;5074225;28;20094;-78
2021/06/19 00:59:07;;;;;;;15.77;2.97;;;;;;;22.76;58.91;98850.69;5074253;28;20044;-78
2021/06/19 01:01:36;;;;;;;10.35;3.13;;;;;;;22.83;62.45;98879.00;5074448;28;20052;-78
2021/06/19 01:04:04;;;;;;;14.13;3.13;;;;;;;22.79;61.20;98873.19;5073975;28;20048;-79
2021/06/19 01:06:33;;;;;;;13.20;3.38;;;;;;;22.84;60.25;98861.28;5074192;28;20098;-78
2021/06/19 01:09:00;;;;;;;10.88;3.10;;;;;;;22.80;60.01;98847.09;5074392;28;20124;-78
2021/06/19 01:11:27;;;;;;;10.60;2.75;;;;;;;22.74;61.31;98841.84;5067548;28;20435;-78
2021/06/19 01:13:55;;;;;;;13.02;3.50;;;;;;;22.81;58.74;98839.66;5073501;28;20569;-78
2021/06/19 01:16:21;;;;;;;17.48;3.40;;;;;;;22.73;59.92;98824.41;5073695;28;20492;-78
2021/06/19 01:18:50;;;;;;;9.45;3.45;;;;;;;22.75;61.17;98824.13;5073892;28;20085;-78
2021/06/19 01:21:17;;;;;;;16.42;3.40;;;;;;;22.68;59.83;98818.81;5074121;28;20040;-79
2021/06/19 01:23:45;;;;;;;11.70;3.33;;;;;;;22.72;59.39;98819.94;5074130;28;20056;-79
2021/06/19 01:26:15;;;;;;;13.43;3.00;;;;;;;22.56;60.31;98818.25;5073391;28;20053;-79
2021/06/19 01:28:43;;;;;;;11.02;3.47;;;;;;;22.64;59.73;98823.22;5073848;28;20053;-79
2021/06/19 01:31:10;;;;;;;14.32;3.25;;;;;;;22.60;60.91;98814.66;5073332;28;20044;-79
2021/06/19 01:33:38;;;;;;;15.90;3.78;;;;;;;22.62;61.03;98826.28;5073615;28;20611;-79
2021/06/19 01:36:06;;;;;;;15.05;4.47;;;;;;;22.55;62.33;98831.28;5073562;28;20064;-79
2021/06/19 01:38:38;;;;;;;18.42;3.20;;;;;;;22.43;62.24;98825.09;5073850;28;20056;-79
2021/06/19 01:41:04;;;;;;;13.50;4.43;;;;;;;22.47;63.76;98828.19;5073342;28;20060;-78
2021/06/19 01:43:32;;;;;;;14.02;3.83;;;;;;;22.48;65.16;98819.59;5074129;28;20555;-78
2021/06/19 01:45:59;;;;;;;14.10;4.68;;;;;;;22.34;66.07;98816.50;5073565;28;20044;-79
2021/06/19 01:48:26;;;;;;;24.65;6.80;;;;;;;22.25;67.49;98823.63;5073421;28;20431;-79
2021/06/19 01:50:53;;;;;;;16.23;3.90;;;;;;;22.23;70.35;98828.59;5073367;28;20094;-78
2021/06/19 01:53:19;;;;;;;11.88;3.78;;;;;;;22.35;66.38;98817.34;5073249;28;20048;-78
2021/06/19 01:55:46;;;;;;;20.13;4.45;;;;;;;22.33;66.79;98825.09;5073354;28;20056;-78
2021/06/19 01:58:13;;;;;;;18.77;4.47;;;;;;;22.31;69.75;98819.81;5073299;28;20045;-79
2021/06/19 02:00:43;;;;;;;21.45;5.15;;;;;;;22.14;72.21;98819.97;5073094;28;20044;-80
2021/06/19 02:03:10;;;;;;;;;;;;;;;21.86;72.78;98812.91;5074362;28;20052;-80
2021/06/19 02:05:44;;;;;;;15.38;3.60;;;;;;;21.68;72.49;98819.69;5073641;28;19921;-80
2021/06/19 02:08:13;;;;;;;10.43;4.00;;;;;;;21.63;73.33;98803.91;5068106;28;20052;-80
2021/06/19 02:10:45;;;;;;;19.63;4.80;;;;;;;21.57;71.33;98807.72;5073433;28;20086;-80
2021/06/19 02:13:13;;;;;;;19.63;4.50;;;;;;;21.45;70.84;98802.34;5052974;28;20056;-80
2021/06/19 02:15:44;;;;;;;9.13;4.50;;;;;;;21.35;74.78;98810.59;5071154;28;20491;-80
2021/06/19 02:18:12;;;;;;;14.35;4.47;;;;;;;21.37;73.00;98802.88;5073340;28;20052;-80
2021/06/19 02:20:39;;;;;;;10.88;4.00;;;;;;;21.04;74.04;98804.81;5072919;28;20040;-81
2021/06/19 02:23:06;;;;;;;14.02;4.72;;;;;;;20.82;75.17;98808.47;5069074;28;20060;-80
2021/06/19 02:25:33;;;;;;;15.55;3.97;;;;;;;20.81;74.62;98792.97;5072158;28;20059;-80
2021/06/19 02:28:04;;;;;;;15.65;4.88;;;;;;;20.92;75.81;98810.50;5072448;28;20052;-80
2021/06/19 02:30:36;;;;;;;9.93;4.68;;;;;;;20.92;76.05;98787.56;5072918;28;20055;-80
2021/06/19 02:33:04;;;;;;;17.60;4.60;;;;;;;20.93;75.36;98790.06;5072396;28;20048;-79
2021/06/19 02:35:33;;;;;;;8.88;4.07;;;;;;;20.99;73.59;98789.00;5072275;28;20048;-80
2021/06/19 02:38:00;;;;;;;11.65;3.78;;;;;;;20.88;73.76;98784.50;5072951;28;20052;-80
2021/06/19 02:40:27;;;;;;;18.90;3.92;;;;;;;20.59;75.26;98776.44;5070374;28;20497;-80
2021/06/19 02:42:55;;;;;;;11.27;4.65;;;;;;;20.72;75.81;98793.72;5075003;28;20404;-80
2021/06/19 02:45:22;;;;;;;11.25;4.50;;;;;;;20.65;76.47;98774.56;5074885;28;20044;-80
2021/06/19 02:47:51;;;;;;;14.30;4.60;;;;;;;20.78;74.21;98781.63;5074696;28;20044;-80
2021/06/19 02:50:21;;;;;;;11.18;4.05;;;;;;;20.58;75.94;98779.44;5075132;28;20044;-80
2021/06/19 02:52:48;;;;;;;9.82;4.55;;;;;;;20.69;74.68;98792.31;5074984;28;20102;-80
2021/06/19 02:55:17;;;;;;;13.63;3.60;;;;;;;20.66;74.31;98788.13;5075913;28;20048;-80
2021/06/19 02:57:47;;;;;;;15.48;4.47;;;;;;;20.64;75.44;98798.59;5076034;28;20485;-79
2021/06/19 03:00:17;;;;;;;13.90;4.72;;;;;;;20.68;74.77;98787.88;5077025;28;20106;-80
2021/06/19 03:02:45;;;;;;;15.68;4.63;;;;;;;20.66;76.41;98798.34;5076526;28;20648;-79
2021/06/19 03:05:13;;;;;;;9.38;4.53;;;;;;;20.68;78.02;98821.00;5076660;28;20389;-80
2021/06/19 03:07:42;;;;;;;15.35;4.40;;;;;;;20.64;77.63;98823.44;5076434;28;20044;-80
2021/06/19 03:10:12;;;;;;;10.23;4.47;;;;;;;20.70;76.06;98827.13;5076339;28;20048;-79
2021/06/19 03:12:38;;;;;;;11.77;4.32;;;;;;;20.52;76.91;98834.63;5067097;28;20053;-79
2021/06/19 03:15:08;;;;;;;14.07;4.55;;;;;;;20.67;75.45;98834.00;5073795;28;20129;-79
2021/06/19 03:17:35;;;;;;;16.75;4.72;;;;;;;20.68;75.53;98834.81;5076406;28;20048;-80
2021/06/19 03:20:02;;;;;;;13.45;4.28;;;;;;;20.46;76.91;98832.91;5076268;28;20443;-79
2021/06/19 03:22:28;;;;;;;16.00;4.80;;;;;;;20.45;77.70;98833.97;5075708;28;20101;-79
2021/06/19 03:24:56;;;;;;;11.80;4.43;;;;;;;20.43;77.86;98846.38;5075718;28;20110;-80
2021/06/19 03:27:24;;;;;;;9.32;4.75;;;;;;;20.58;77.93;98848.47;5075934;28;20052;-79
2021/06/19 03:29:51;;;;;;;17.85;4.63;;;;;;;20.55;78.95;98860.03;5075374;28;20067;-80
2021/06/19 03:32:17;;;;;;;9.35;4.10;;;;;;;20.39;78.47;98864.56;5075757;28;20094;-80
2021/06/19 03:34:44;;;;;;;15.15;4.43;;;;;;;20.25;78.86;98877.88;5075348;28;20052;-79
2021/06/19 03:37:11;;;;;;;9.90;4.60;;;;;;;20.45;77.32;98871.81;5075013;28;20044;-79
2021/06/19 03:39:38;;;;;;;10.63;4.68;;;;;;;20.49;78.17;98878.50;5075368;28;20044;-79
2021/06/19 03:42:07;;;;;;;12.10;4.93;;;;;;;20.29;78.19;98862.50;5074811;28;20052;-79
2021/06/19 03:44:33;;;;;;;14.20;4.72;;;;;;;20.36;76.97;98895.44;5075204;28;20052;-79
2021/06/19 03:47:00;;;;;;;12.38;4.28;;;;;;;20.30;79.45;98895.34;5074742;28;20083;-79
2021/06/19 03:49:27;;;;;;;12.00;4.25;;;;;;;20.30;79.23;98905.56;5074942;28;20044;-79
2021/06/19 03:51:54;;;;;;;13.20;5.00;;;;;;;20.47;77.82;98889.81;5074335;28;20546;-80
2021/06/19 03:54:21;;;;;;;14.38;4.75;;;;;;;20.57;77.39;98897.38;5074868;28;20044;-79
2021/06/19 03:56:47;;;;;;;12.70;4.00;;;;;;;20.37;77.92;98894.31;5074470;28;20135;-80
2021/06/19 03:59:15;;;;;;;16.20;4.60;;;;;;;20.42;78.90;98903.53;5075152;28;20117;-79
2021/06/19 04:01:42;;;;;;;11.48;4.57;;;;;;;20.41;78.74;98888.03;5075078;28;20044;-78
2021/06/19 04:04:09;;;;;;;15.32;5.35;;;;;;;20.30;78.14;98891.78;5075526;28;20082;-79
2021/06/19 04:06:36;;;;;;;13.93;4.00;;;;;;;20.43;78.13;98905.19;5075543;28;20052;-79
2021/06/19 04:09:03;;;;;;;14.85;4.70;;;;;;;20.45;77.66;98902.19;5075625;28;20049;-79
2021/06/19 04:11:30;;;;;;;16.33;4.85;;;;;;;20.34;78.45;98904.81;5075605;28;20377;-79
2021/06/19 04:13:56;;;;;;;10.95;4.90;;;;;;;20.42;79.21;98910.97;5074713;28;20121;-78
2021/06/19 04:16:24;;;;;;;13.27;4.07;;;;;;;20.61;79.19;98923.38;5075565;28;20045;-78
2021/06/19 04:18:51;;;;;;;12.18;4.45;;;;;;;20.72;78.84;98924.38;5075086;28;20052;-79
2021/06/19 04:21:18;;;;;;;10.38;4.03;;;;;;;20.67;78.73;98919.63;5075116;28;20086;-79
2021/06/19 04:23:44;;;;;;;13.88;4.57;;;;;;;20.71;78.10;98924.63;5075601;28;20045;-79
2021/06/19 04:26:11;;;;;;;11.63;4.10;;;;;;;20.78;77.88;98939.09;5074598;28;20052;-79
2021/06/19 04:28:38;;;;;;;10.80;4.45;;;;;;;20.98;78.25;98944.00;5075590;28;20049;-79
2021/06/19 04:31:05;;;;;;;11.65;4.88;;;;;;;20.73;79.31;98928.81;5074828;28;20048;-79
2021/06/19 04:33:33;;;;;;;10.27;4.05;;;;;;;20.81;79.13;98927.53;5074925;28;20056;-79
2021/06/19 04:36:01;;;;;;;9.20;4.95;;;;;;;20.77;79.87;98929.13;5074806;28;20071;-79
2021/06/19 04:38:28;;;;;;;12.77;4.53;;;;;;;20.76;79.24;98953.16;5074637;28;20558;-79
2021/06/19 04:40:58;;;;;;;14.20;6.03;;;;;;;20.91;78.21;98958.03;5075098;28;20105;-79
2021/06/19 04:44:03;;;;;;;13.73;4.18;;;;;;;20.79;79.67;98962.84;5073196;28;20056;-78
2021/06/19 04:46:28;;;;;;;9.63;4.15;;;;;;;20.66;79.84;98959.38;5054605;28;20397;-79
2021/06/19 04:48:56;;;;;;;10.40;4.22;;;;;;;20.79;79.55;98951.78;5055794;28;20476;-79
2021/06/19 04:51:23;;;;;;;17.20;6.13;;;;;;;20.69;80.85;98958.84;5074425;28;20053;-79
2021/06/19 04:53:53;;;;;;;18.38;4.55;;;;;;;20.78;80.39;98950.97;5074725;28;20048;-78
2021/06/19 04:56:23;;;;;;;8.93;4.40;;;;;;;20.87;78.91;98954.13;5069752;28;20048;-79
2021/06/19 04:58:50;;;;;;;13.35;4.05;;;;;;;20.96;79.10;98960.84;5075054;28;20049;-80
2021/06/19 05:01:16;;;;;;;9.18;4.20;;;;;;;20.49;82.01;98950.28;5073943;28;20603;-78
2021/06/19 05:03:43;;;;;;;16.50;4.75;;;;;;;20.81;80.44;98958.72;5074145;28;20098;-79
2021/06/19 05:06:11;;;;;;;12.68;4.82;;;;;;;20.89;79.97;98967.66;5073249;28;20095;-79
2021/06/19 05:08:38;;;;;;;12.15;4.57;;;;;;;20.88;79.87;98966.84;5074370;28;20078;-79
2021/06/19 05:11:05;;;;;;;13.85;5.25;;;;;;;20.73;80.13;98967.47;5074202;28;20113;-78
2021/06/19 05:13:31;;;;;;;9.40;4.43;;;;;;;20.66;81.22;98970.41;5074164;28;20113;-79
2021/06/19 05:15:58;;;;;;;12.27;5.20;;;;;;;20.65;81.29;98974.25;5073319;28;20476;-78
2021/06/19 05:18:25;;;;;;;10.75;4.95;;;;;;;20.91;80.35;98962.72;5074557;28;20048;-78
2021/06/19 05:20:51;;;;;;;10.90;5.10;;;;;;;21.49;78.01;98969.44;5074305;28;20086;-78
2021/06/19 05:23:20;;;;;;;9.88;4.40;;;;;;;21.86;75.82;98965.09;5072272;28;20621;-78
2021/06/19 05:25:46;;;;;;;10.80;4.18;;;;;;;22.54;74.22;98972.81;5071840;28;20106;-79
2021/06/19 05:28:13;;;;;;;10.45;4.55;;;;;;;23.01;71.96;98965.53;5073779;28;20044;-80
2021/06/19 05:30:40;;;;;;;9.65;4.95;;;;;;;23.49;70.22;98974.56;5074090;28;20443;-78
2021/06/19 05:33:07;;;;;;;12.20;4.97;;;;;;;23.88;67.95;98970.47;5073559;28;20048;-78
2021/06/19 05:35:34;;;;;;;11.63;4.32;;;;;;;24.07;67.54;98979.91;5072793;28;20053;-79
2021/06/19 05:38:00;;;;;;;26.42;4.75;;;;;;;24.18;65.17;98958.53;5073497;28;20082;-79
2021/06/19 05:40:28;;;;;;;11.88;4.13;;;;;;;24.51;65.36;98970.97;5073857;28;20125;-78
2021/06/19 05:43:05;;;;;;;16.73;4.55;;;;;;;24.73;64.21;98972.59;5067239;28;20044;-78
2021/06/19 05:45:34;;;;;;;12.77;4.55;;;;;;;25.06;63.77;98982.19;5072559;28;20047;-79
2021/06/19 05:48:03;;;;;;;12.48;4.40;;;;;;;25.22;62.89;98974.59;5073383;28;20045;-79
2021/06/19 05:50:30;;;;;;;16.90;4.83;;;;;;;25.47;61.12;98966.41;5073271;28;20075;-79
2021/06/19 05:52:56;;;;;;;9.30;4.78;;;;;;;25.67;60.70;98983.00;5073660;28;20369;-80
2021/06/19 05:55:28;;;;;;;14.30;4.70;;;;;;;25.68;60.76;98970.72;5073168;28;20049;-81
2021/06/19 05:57:54;;;;;;;14.32;4.88;;;;;;;26.02;60.15;98986.66;5073356;28;20455;-81
2021/06/19 06:00:21;;;;;;;15.90;5.05;;;;;;;25.95;60.23;98978.59;5073288;28;20052;-79
2021/06/19 06:02:48;;;;;;;15.07;4.80;;;;;;;25.97;59.93;98978.31;5073321;28;20488;-80
2021/06/19 06:05:16;;;;;;;11.98;4.82;;;;;;;26.20;59.21;98973.94;5072741;28;20059;-78
2021/06/19 06:07:46;;;;;;;15.38;4.22;;;;;;;26.11;58.43;98976.53;5072599;28;20075;-78
2021/06/19 06:10:13;;;;;;;16.27;4.82;;;;;;;26.40;58.04;98981.28;5072632;28;20052;-78
2021/06/19 06:12:41;;;;;;;18.92;4.55;;;;;;;26.36;57.96;98994.16;5073633;28;20052;-79
2021/06/19 06:15:09;;;;;;;14.35;4.50;;;;;;;26.66;57.28;98992.16;5062363;28;20056;-78
2021/06/19 06:17:36;;;;;;;14.30;5.00;;;;;;;26.81;56.42;98985.59;5073128;28;20455;-79
2021/06/19 06:20:04;;;;;;;17.88;5.93;;;;;;;26.66;55.98;98986.56;5072961;28;20094;-78
2021/06/19 06:22:31;;;;;;;12.90;4.90;;;;;;;27.02;56.15;98978.66;5053145;28;20091;-78
2021/06/19 06:24:57;;;;;;;18.13;5.25;;;;;;;26.98;55.54;98982.34;5067454;28;20094;-78
2021/06/19 06:27:24;;;;;;;19.52;5.20;;;;;;;27.28;54.56;98967.16;5071841;28;20056;-78
2021/06/19 06:29:56;;;;;;;15.02;5.00;;;;;;;27.60;54.27;98965.59;5073306;28;20044;-78
2021/06/19 06:32:22;;;;;;;18.02;4.68;;;;;;;27.81;53.49;98973.66;5072953;28;20044;-78
2021/06/19 06:34:49;;;;;;;16.80;5.45;;;;;;;27.95;53.67;98977.31;5072787;28;20102;-78
2021/06/19 06:37:16;;;;;;;15.32;4.93;;;;;;;28.04;52.32;98977.50;5073016;28;20048;-78
2021/06/19 06:39:44;;;;;;;16.98;5.55;;;;;;;28.17;52.40;98971.13;5065676;28;20044;-78
2021/06/19 06:42:13;;;;;;;16.38;4.80;;;;;;;27.33;54.14;98975.47;5075113;28;20562;-79
2021/06/19 06:44:40;;;;;;;;;;;;;;;27.91;52.25;98970.69;5073176;28;20853;-79
2021/06/19 06:47:11;;;;;;;15.43;5.05;;;;;;;28.12;52.21;98967.59;5072125;28;20364;-78
2021/06/19 06:49:38;;;;;;;19.40;5.13;;;;;;;27.96;52.19;98972.56;5072786;28;20114;-79
2021/06/19 06:52:05;;;;;;;13.32;5.05;;;;;;;28.05;52.32;98970.78;5072820;28;20068;-79
2021/06/19 06:54:38;;;;;;;21.08;6.30;;;;;;;28.40;52.55;98974.06;5072203;28;20564;-79
2021/06/19 06:57:08;;;;;;;14.77;5.20;;;;;;;28.70;52.35;98980.25;5072244;28;20480;-79
2021/06/19 06:59:35;;;;;;;15.50;4.57;;;;;;;28.69;51.56;98981.38;5072243;28;20542;-78
2021/06/19 07:02:02;;;;;;;10.93;4.60;;;;;;;28.52;51.40;98981.97;5072446;28;20132;-79
2021/06/19 07:04:30;;;;;;;14.20;5.85;;;;;;;28.57;51.24;98970.66;5071714;28;20048;-79
2021/06/19 07:06:57;;;;;;;9.90;4.90;;;;;;;28.56;50.98;98981.03;5072526;28;20492;-79
2021/06/19 07:09:24;;;;;;;13.45;5.13;;;;;;;28.73;50.19;98960.06;5072273;28;20083;-79
2021/06/19 07:11:51;;;;;;;11.98;4.72;;;;;;;29.00;49.39;98959.22;5071949;28;20066;-80
2021/06/19 07:14:17;;;;;;;10.45;4.88;;;;;;;29.39;49.15;98962.59;5072293;28;20439;-78
2021/06/19 07:16:44;;;;;;;11.65;4.90;;;;;;;29.57;49.02;98969.16;5072130;28;20056;-78
2021/06/19 07:19:11;;;;;;;14.30;6.80;;;;;;;29.18;48.58;98957.44;5072450;28;20546;-78
2021/06/19 07:21:41;;;;;;;10.23;4.63;;;;;;;29.60;49.31;98960.97;5071362;28;20036;-79
2021/06/19 07:24:09;;;;;;;16.85;4.65;;;;;;;29.48;48.34;98971.91;5071619;28;20143;-79
2021/06/19 07:26:35;;;;;;;12.88;5.35;;;;;;;29.41;48.05;98966.72;5071953;28;20048;-78
2021/06/19 07:29:33;;;;;;;13.30;5.00;;;;;;;29.10;49.55;98980.53;5074732;28;20052;-78
2021/06/19 07:32:00;;;;;;;10.93;4.43;;;;;;;29.12;49.54;98962.31;5054502;28;20398;-78
2021/06/19 07:34:27;;;;;;;18.23;5.35;;;;;;;29.17;48.73;98963.34;5073329;28;20048;-79
2021/06/19 07:36:58;;;;;;;12.55;5.05;;;;;;;29.27;48.67;98940.75;5075243;28;21015;-79
2021/06/19 07:39:25;;;;;;;12.50;4.75;;;;;;;29.46;48.13;98951.78;5075094;28;20072;-79
2021/06/19 07:41:52;;;;;;;13.45;4.72;;;;;;;29.61;47.44;98942.19;5074718;28;20454;-79
2021/06/19 07:44:21;;;;;;;9.85;4.65;;;;;;;29.56;47.67;98957.16;5075165;28;20385;-79
2021/06/19 07:46:49;;;;;;;21.60;5.30;;;;;;;29.61;47.82;98948.63;5075595;28;20049;-79
2021/06/19 07:49:19;;;;;;;17.40;6.43;;;;;;;29.59;48.20;98948.09;5075265;28;20340;-79
2021/06/19 07:51:48;;;;;;;13.43;5.40;;;;;;;29.81;47.09;98943.72;5075142;28;20059;-79
2021/06/19 07:54:17;;;;;;;10.23;5.05;;;;;;;29.62;46.45;98936.28;5074769;28;20086;-79
2021/06/19 07:56:45;;;;;;;12.52;4.95;;;;;;;29.73;46.63;98936.84;5075281;28;20084;-79
2021/06/19 07:59:14;;;;;;;15.30;5.47;;;;;;;30.30;45.23;98910.19;5057409;28;20053;-78
2021/06/19 08:01:42;;;;;;;7.70;4.83;;;;;;;30.59;45.71;98923.72;5075780;28;20049;-78
2021/06/19 08:04:12;;;;;;;13.00;4.57;;;;;;;30.28;46.05;98910.53;5075476;28;20048;-80
2021/06/19 08:06:39;;;;;;;10.35;4.97;;;;;;;30.17;46.14;98921.19;5073535;28;20055;-80
2021/06/19 08:09:06;;;;;;;14.23;4.43;;;;;;;30.03;47.11;98914.00;5075345;28;20499;-79
2021/06/19 08:11:37;;;;;;;13.70;4.78;;;;;;;30.09;44.86;98898.72;5074916;28;20052;-80
2021/06/19 08:14:04;;;;;;;14.93;4.35;;;;;;;30.13;45.42;98900.56;5074786;28;20048;-81
2021/06/19 08:16:32;;;;;;;12.80;5.00;;;;;;;30.25;45.98;98901.94;5075215;28;20048;-80
2021/06/19 08:18:59;;;;;;;11.05;4.43;;;;;;;30.13;45.97;98894.94;5075303;28;20052;-81
2021/06/19 08:21:28;;;;;;;12.68;5.30;;;;;;;30.11;46.14;98902.84;5074968;28;20052;-81
2021/06/19 08:23:57;;;;;;;10.98;5.15;;;;;;;30.47;46.93;98904.72;5074943;28;20053;-80
2021/06/19 08:26:23;;;;;;;11.45;4.75;;;;;;;30.62;44.64;98888.56;5074619;28;20090;-81
2021/06/19 08:28:51;;;;;;;17.30;5.85;;;;;;;30.54;45.35;98893.81;5075460;28;20048;-81
2021/06/19 08:31:18;;;;;;;8.82;4.45;;;;;;;30.66;44.90;98907.25;5075308;28;20132;-81
2021/06/19 08:33:45;;;;;;;14.50;5.55;;;;;;;30.80;44.28;98897.88;5075069;28;20049;-81
2021/06/19 08:36:12;;;;;;;12.10;5.28;;;;;;;30.07;45.79;98901.03;5074428;28;20469;-81
2021/06/19 08:38:39;;;;;;;9.05;4.45;;;;;;;29.89;45.70;98892.50;5074544;28;20484;-81
2021/06/19 08:41:09;;;;;;;14.20;4.43;;;;;;;30.03;45.46;98888.78;5069811;28;20049;-81
2021/06/19 08:43:40;;;;;;;12.30;4.70;;;;;;;30.55;44.39;98908.69;5064172;28;20059;-81
2021/06/19 08:46:09;;;;;;;15.48;5.03;;;;;;;30.45;46.04;98894.97;5074905;28;20123;-81
2021/06/19 08:48:37;;;;;;;15.73;5.00;;;;;;;30.78;45.78;98900.19;5075056;28;20488;-81
2021/06/19 08:51:04;;;;;;;22.33;5.50;;;;;;;31.05;45.04;98894.31;5074327;28;20075;-81
2021/06/19 08:53:33;;;;;;;21.98;5.50;;;;;;;30.87;46.03;98887.81;5072222;28;20404;-81
2021/06/19 08:56:00;;;;;;;13.23;4.35;;;;;;;30.95;44.21;98885.38;5086352;28;20047;-81
2021/06/19 08:58:31;;;;;;;15.48;4.72;;;;;;;31.38;43.27;98870.56;5073399;28;20045;-80
2021/06/19 09:00:58;;;;;;;17.15;4.68;;;;;;;31.15;43.51;98895.16;5074345;28;20060;-81
2021/06/19 09:03:31;;;;;;;14.73;4.72;;;;;;;30.87;44.57;98898.22;5074018;28;20098;-81
2021/06/19 09:06:16;;;;;;;10.63;5.47;;;;;;;30.64;44.26;98889.09;5073630;28;20625;-81
2021/06/19 09:08:59;;;;;;;18.42;5.03;;;;;;;30.84;44.67;98893.28;5073613;28;20500;-81
2021/06/19 09:11:51;;;;;;;13.27;4.40;;;;;;;30.94;44.73;98890.16;5070902;28;20040;-81
2021/06/19 09:14:21;;;;;;;10.00;4.60;;;;;;;31.12;43.75;98882.63;5072554;28;20056;-80
2021/06/19 09:16:58;;;;;;;18.90;4.65;;;;;;;30.83;43.82;98894.41;5073391;28;20049;-80
2021/06/19 09:19:29;;;;;;;14.10;4.50;;;;;;;30.84;43.15;98879.25;5073294;28;20044;-81
2021/06/19 09:22:18;;;;;;;12.75;4.57;;;;;;;31.50;41.81;98893.19;5072797;28;20052;-81
2021/06/19 09:24:48;;;;;;;19.38;5.18;;;;;;;31.83;42.78;98878.66;5072737;28;20063;-81
2021/06/19 09:30:40;;;;;;;19.75;4.93;;;;;;;31.77;42.96;98885.59;5065012;28;20131;-80
2021/06/19 09:33:12;;;;;;;9.63;4.68;;;;;;;31.77;42.64;98897.66;5066243;28;20040;-80
2021/06/19 09:36:11;;;;;;;9.10;4.47;;;;;;;31.82;44.94;98896.66;5073522;28;20045;-81
2021/06/19 09:39:03;;;;;;;12.60;4.97;;;;;;;31.54;44.75;98893.34;5073354;28;20369;-80
2021/06/19 09:41:38;;;;;;;12.80;4.60;;;;;;;31.57;42.70;98878.66;5073991;28;20049;-81
2021/06/19 09:44:16;;;;;;;12.05;5.25;;;;;;;32.03;42.63;98893.16;5072295;28;20123;-81
2021/06/19 09:46:56;;;;;;;13.32;4.85;;;;;;;32.19;42.03;98888.66;5072826;28;20052;-80
2021/06/19 09:49:29;;;;;;;;;;;;;;;31.80;42.21;98887.75;5074086;28;20052;-81
2021/06/19 09:51:58;;;;;;;10.82;4.40;;;;;;;31.85;41.80;98865.06;5073229;28;19968;-80
2021/06/19 09:54:25;;;;;;;11.25;4.57;;;;;;;31.90;42.64;98878.13;5073472;28;20102;-80
2021/06/19 09:56:54;;;;;;;10.93;4.40;;;;;;;32.47;42.44;98875.00;5072626;28;20048;-80
2021/06/19 09:59:26;;;;;;;10.07;4.78;;;;;;;32.61;39.97;98874.75;5073759;28;20433;-81
2021/06/19 10:01:53;;;;;;;22.98;5.10;;;;;;;32.75;40.31;98865.28;5073032;28;20068;-80
2021/06/19 10:04:22;;;;;;;10.60;4.22;;;;;;;32.54;41.76;98851.13;5073192;28;20052;-79
2021/06/19 10:06:49;;;;;;;12.95;5.05;;;;;;;32.67;39.70;98861.34;5072849;28;20052;-79
2021/06/19 10:09:18;;;;;;;11.48;4.57;;;;;;;32.49;39.90;98838.09;5073484;28;20052;-80
2021/06/19 10:11:47;;;;;;;26.27;7.28;;;;;;;32.72;40.16;98827.38;5073389;28;20048;-80
2021/06/19 10:14:17;;;;;;;16.08;4.25;;;;;;;32.33;40.80;98831.38;5072833;28;20045;-80
2021/06/19 10:16:46;;;;;;;13.82;4.40;;;;;;;32.48;40.61;98822.38;5074278;28;20040;-80
2021/06/19 10:19:13;;;;;;;14.38;4.75;;;;;;;32.49;41.81;98820.38;5072833;28;20484;-80
2021/06/19 10:21:40;;;;;;;16.10;6.13;;;;;;;32.98;42.67;98829.19;5073747;28;20117;-80
2021/06/19 10:24:08;;;;;;;10.10;4.22;;;;;;;32.92;39.68;98820.09;5073011;28;20072;-80
2021/06/19 10:26:38;;;;;;;11.65;3.90;;;;;;;32.73;40.56;98819.75;5073173;28;20464;-80
2021/06/19 10:29:07;;;;;;;10.35;4.35;;;;;;;32.88;41.23;98819.16;5072681;28;20052;-80
2021/06/19 10:31:40;;;;;;;16.60;4.53;;;;;;;33.07;37.82;98798.16;5073082;28;20053;-80
2021/06/19 10:34:27;;;;;;;11.98;4.05;;;;;;;33.24;39.50;98797.19;5072962;28;20286;-80
2021/06/19 10:36:55;;;;;;;11.70;4.38;;;;;;;32.83;39.40;98782.75;5071202;28;20101;-80
2021/06/19 10:39:32;;;;;;;12.90;4.45;;;;;;;32.86;40.35;98770.00;5072997;28;20044;-79
2021/06/19 10:42:01;;;;;;;10.57;4.53;;;;;;;33.11;39.08;98776.59;5072907;28;20049;-80
2021/06/19 10:44:51;;;;;;;9.63;4.03;;;;;;;33.17;37.46;98772.38;5072796;28;20045;-80
2021/06/19 10:47:20;;;;;;;15.93;4.25;;;;;;;33.28;38.54;98767.19;5066415;28;20052;-79
2021/06/19 10:49:47;;;;;;;8.77;3.53;;;;;;;33.59;37.60;98763.88;5080407;28;20048;-79
2021/06/19 10:52:28;;;;;;;18.40;4.25;;;;;;;33.61;36.33;98769.97;5073050;28;20040;-80
2021/06/19 10:55:26;;;;;;;13.02;4.20;;;;;;;33.98;36.01;98769.22;5052180;28;20060;-80
2021/06/19 10:58:00;;;;;;;10.70;3.72;;;;;;;33.77;37.50;98761.72;5051906;28;20092;-80
2021/06/19 11:00:30;;;;;;;15.73;4.50;;;;;;;33.78;36.93;98759.72;5067337;28;20056;-80
2021/06/19 11:02:58;;;;;;;;;;;;;;;33.65;37.60;98756.84;5075265;28;20045;-80
2021/06/19 11:05:56;;;;;;;16.90;3.95;;;;;;;33.63;38.92;98756.34;5075861;28;19921;-80
2021/06/19 11:08:23;;;;;;;16.58;4.05;;;;;;;33.65;36.24;98734.28;5059891;28;20048;-80
2021/06/19 11:10:55;;;;;;;12.82;3.88;;;;;;;33.93;35.13;98744.91;5063265;28;20048;-80
2021/06/19 11:13:47;;;;;;;10.00;4.13;;;;;;;33.78;34.67;98740.78;5072609;28;20060;-80
2021/06/19 11:16:50;;;;;;;9.80;3.80;;;;;;;33.60;35.85;98728.88;5074968;28;20097;-80
2021/06/19 11:19:39;;;;;;;13.23;3.55;;;;;;;33.77;34.24;98730.72;5055582;28;20081;-79
2021/06/19 11:22:25;;;;;;;9.63;3.92;;;;;;;33.88;32.43;98727.44;5066431;28;20084;-79
2021/06/19 11:25:24;;;;;;;10.85;3.45;;;;;;;33.54;33.23;98724.63;5057919;28;20094;-80
2021/06/19 11:28:00;;;;;;;16.33;4.38;;;;;;;33.98;35.83;98722.16;5075614;28;20694;-80
2021/06/19 11:30:56;;;;;;;16.48;4.20;;;;;;;33.85;33.81;98710.03;5075961;28;20056;-80
2021/06/19 11:33:55;;;;;;;13.35;3.90;;;;;;;34.20;34.22;98715.19;5075628;28;20049;-80
2021/06/19 11:36:41;;;;;;;16.02;4.18;;;;;;;34.46;33.35;98704.72;5073035;28;20044;-80
2021/06/19 11:39:11;;;;;;;11.02;3.92;;;;;;;34.33;33.49;98696.28;5075755;28;20067;-79
2021/06/19 11:41:47;;;;;;;12.05;3.63;;;;;;;34.10;33.50;98693.13;5074686;28;20044;-79